Terminal Aerodrome Forecast
Issued by NWS

Home | Current Version | Previous Version | Graphics & Text | Print | Product List | Glossary On
Versions: 1 2 3 4 5 6 7 8 9 10 11 12 13 14 15 16 17 18 19 20 21
000
FTUS41 KCLE 211700
TAFFDY
TAF
KFDY 211727Z 2118/2218 22007KT P6SM SCT035
     FM212300 18005KT P6SM SCT200
     FM220800 19008KT P6SM BKN040 OVC080 PROB30 2210/2214 6SM -FZRA
      OVC025
     FM221400 20012KT 5SM -RA BR BKN020 OVC050=

USA.gov is the U.S. government's official web portal to all federal, state and local government web resources and services.